sensor_id;sensor_type;location;lat;lon;timestamp;temperature;humidity
18309;DHT22;9280;50.276;18.650;2022-09-29T00:00:00;9.60;99.90
18309;DHT22;9280;50.276;18.650;2022-09-29T00:02:51;9.60;99.90
18309;DHT22;9280;50.276;18.650;2022-09-29T00:05:37;9.60;99.90
18309;DHT22;9280;50.276;18.650;2022-09-29T00:08:25;9.60;99.90
18309;DHT22;9280;50.276;18.650;2022-09-29T00:11:14;9.60;99.90
18309;DHT22;9280;50.276;18.650;2022-09-29T00:14:00;9.50;99.90
18309;DHT22;9280;50.276;18.650;2022-09-29T00:16:49;9.50;99.90
18309;DHT22;9280;50.276;18.650;2022-09-29T00:19:37;9.50;99.90
18309;DHT22;9280;50.276;18.650;2022-09-29T00:22:23;9.50;99.90
18309;DHT22;9280;50.276;18.650;2022-09-29T00:25:09;9.50;99.90
18309;DHT22;9280;50.276;18.650;2022-09-29T00:27:55;9.50;99.90
18309;DHT22;9280;50.276;18.650;2022-09-29T00:30:41;9.50;99.90
18309;DHT22;9280;50.276;18.650;2022-09-29T00:33:28;9.50;99.90
18309;DHT22;9280;50.276;18.650;2022-09-29T00:36:19;9.50;99.90
18309;DHT22;9280;50.276;18.650;2022-09-29T00:39:05;9.40;99.90
18309;DHT22;9280;50.276;18.650;2022-09-29T00:41:52;9.40;99.90
18309;DHT22;9280;50.276;18.650;2022-09-29T00:48:14;9.30;99.90
18309;DHT22;9280;50.276;18.650;2022-09-29T00:51:01;9.30;99.90
18309;DHT22;9280;50.276;18.650;2022-09-29T00:53:49;9.20;99.90
18309;DHT22;9280;50.276;18.650;2022-09-29T00:56:37;9.20;99.90
18309;DHT22;9280;50.276;18.650;2022-09-29T00:59:30;9.10;99.90
18309;DHT22;9280;50.276;18.650;2022-09-29T01:02:20;9.10;99.90
18309;DHT22;9280;50.276;18.650;2022-09-29T01:05:10;9.10;99.90
18309;DHT22;9280;50.276;18.650;2022-09-29T01:08:05;9.10;99.90
18309;DHT22;9280;50.276;18.650;2022-09-29T01:10:56;9.10;99.90
18309;DHT22;9280;50.276;18.650;2022-09-29T01:13:44;9.10;99.90
18309;DHT22;9280;50.276;18.650;2022-09-29T01:16:31;9.10;99.90
18309;DHT22;9280;50.276;18.650;2022-09-29T01:19:22;9.10;99.90
18309;DHT22;9280;50.276;18.650;2022-09-29T01:22:18;9.10;99.90
18309;DHT22;9280;50.276;18.650;2022-09-29T01:25:24;9.20;99.90
18309;DHT22;9280;50.276;18.650;2022-09-29T01:28:44;9.20;99.90
18309;DHT22;9280;50.276;18.650;2022-09-29T01:31:39;9.20;99.90
18309;DHT22;9280;50.276;18.650;2022-09-29T01:34:34;9.20;99.90
18309;DHT22;9280;50.276;18.650;2022-09-29T01:37:34;9.20;99.90
18309;DHT22;9280;50.276;18.650;2022-09-29T01:40:26;9.20;99.90
18309;DHT22;9280;50.276;18.650;2022-09-29T01:43:18;9.20;99.90
18309;DHT22;9280;50.276;18.650;2022-09-29T01:46:08;9.20;99.90
18309;DHT22;9280;50.276;18.650;2022-09-29T01:49:02;9.20;99.90
18309;DHT22;9280;50.276;18.650;2022-09-29T01:51:53;9.20;99.90
18309;DHT22;9280;50.276;18.650;2022-09-29T01:54:44;9.20;99.90
18309;DHT22;9280;50.276;18.650;2022-09-29T01:57:35;9.20;99.90
18309;DHT22;9280;50.276;18.650;2022-09-29T02:00:22;9.20;99.90
18309;DHT22;9280;50.276;18.650;2022-09-29T02:03:14;9.20;99.90
18309;DHT22;9280;50.276;18.650;2022-09-29T02:06:07;9.20;99.90
18309;DHT22;9280;50.276;18.650;2022-09-29T02:08:58;9.20;99.90
18309;DHT22;9280;50.276;18.650;2022-09-29T02:11:46;9.20;99.90
18309;DHT22;9280;50.276;18.650;2022-09-29T02:14:37;9.20;99.90
18309;DHT22;9280;50.276;18.650;2022-09-29T02:17:29;9.20;99.90
18309;DHT22;9280;50.276;18.650;2022-09-29T02:20:16;9.20;99.90
18309;DHT22;9280;50.276;18.650;2022-09-29T02:23:04;9.20;99.90
18309;DHT22;9280;50.276;18.650;2022-09-29T02:25:50;9.20;99.90
18309;DHT22;9280;50.276;18.650;2022-09-29T02:28:37;9.20;99.90
18309;DHT22;9280;50.276;18.650;2022-09-29T02:31:23;9.20;99.90
18309;DHT22;9280;50.276;18.650;2022-09-29T02:34:13;9.30;99.90
18309;DHT22;9280;50.276;18.650;2022-09-29T02:37:10;9.30;99.90
18309;DHT22;9280;50.276;18.650;2022-09-29T02:40:20;9.30;99.90
18309;DHT22;9280;50.276;18.650;2022-09-29T02:43:27;9.20;99.90
18309;DHT22;9280;50.276;18.650;2022-09-29T02:46:31;9.20;99.90
18309;DHT22;9280;50.276;18.650;2022-09-29T02:49:33;9.20;99.90
18309;DHT22;9280;50.276;18.650;2022-09-29T02:52:31;9.20;99.90
18309;DHT22;9280;50.276;18.650;2022-09-29T02:55:26;9.20;99.90
18309;DHT22;9280;50.276;18.650;2022-09-29T02:58:17;9.20;99.90
18309;DHT22;9280;50.276;18.650;2022-09-29T03:01:04;9.20;99.90
18309;DHT22;9280;50.276;18.650;2022-09-29T03:03:51;9.20;99.90
18309;DHT22;9280;50.276;18.650;2022-09-29T03:06:37;9.20;99.90
18309;DHT22;9280;50.276;18.650;2022-09-29T03:09:23;9.20;99.90
18309;DHT22;9280;50.276;18.650;2022-09-29T03:12:11;9.20;99.90
18309;DHT22;9280;50.276;18.650;2022-09-29T03:14:57;9.20;99.90
18309;DHT22;9280;50.276;18.650;2022-09-29T03:17:43;9.20;99.90
18309;DHT22;9280;50.276;18.650;2022-09-29T03:20:30;9.20;99.90
18309;DHT22;9280;50.276;18.650;2022-09-29T03:23:16;9.20;99.90
18309;DHT22;9280;50.276;18.650;2022-09-29T03:26:05;9.20;99.90
18309;DHT22;9280;50.276;18.650;2022-09-29T03:28:53;9.20;99.90
18309;DHT22;9280;50.276;18.650;2022-09-29T03:31:39;9.20;99.90
18309;DHT22;9280;50.276;18.650;2022-09-29T03:34:25;9.20;99.90
18309;DHT22;9280;50.276;18.650;2022-09-29T03:37:11;9.20;99.90
18309;DHT22;9280;50.276;18.650;2022-09-29T03:39:57;9.20;99.90
18309;DHT22;9280;50.276;18.650;2022-09-29T03:42:45;9.30;99.90
18309;DHT22;9280;50.276;18.650;2022-09-29T03:45:33;9.20;99.90
18309;DHT22;9280;50.276;18.650;2022-09-29T03:48:20;9.30;99.90
18309;DHT22;9280;50.276;18.650;2022-09-29T03:51:07;9.30;99.90
18309;DHT22;9280;50.276;18.650;2022-09-29T03:53:54;9.30;99.90
18309;DHT22;9280;50.276;18.650;2022-09-29T03:56:40;9.30;99.90
18309;DHT22;9280;50.276;18.650;2022-09-29T03:59:26;9.30;99.90
18309;DHT22;9280;50.276;18.650;2022-09-29T04:02:13;9.20;99.90
18309;DHT22;9280;50.276;18.650;2022-09-29T04:05:02;9.30;99.90
18309;DHT22;9280;50.276;18.650;2022-09-29T04:07:48;9.20;99.90
18309;DHT22;9280;50.276;18.650;2022-09-29T04:10:35;9.20;99.90
18309;DHT22;9280;50.276;18.650;2022-09-29T04:13:21;9.20;99.90
18309;DHT22;9280;50.276;18.650;2022-09-29T04:16:08;9.20;99.90
18309;DHT22;9280;50.276;18.650;2022-09-29T04:18:56;9.20;99.90
18309;DHT22;9280;50.276;18.650;2022-09-29T04:21:42;9.20;99.90
18309;DHT22;9280;50.276;18.650;2022-09-29T04:24:29;9.20;99.90
18309;DHT22;9280;50.276;18.650;2022-09-29T04:27:16;9.20;99.90
18309;DHT22;9280;50.276;18.650;2022-09-29T04:30:03;9.20;99.90
18309;DHT22;9280;50.276;18.650;2022-09-29T04:32:49;9.20;99.90
18309;DHT22;9280;50.276;18.650;2022-09-29T04:35:37;9.20;99.90
18309;DHT22;9280;50.276;18.650;2022-09-29T04:38:23;9.20;99.90
18309;DHT22;9280;50.276;18.650;2022-09-29T04:41:09;9.20;99.90
18309;DHT22;9280;50.276;18.650;2022-09-29T04:43:55;9.20;99.90
18309;DHT22;9280;50.276;18.650;2022-09-29T04:46:41;9.20;99.90
18309;DHT22;9280;50.276;18.650;2022-09-29T04:49:27;9.10;99.90
18309;DHT22;9280;50.276;18.650;2022-09-29T04:52:15;9.10;99.90
18309;DHT22;9280;50.276;18.650;2022-09-29T04:55:01;9.10;99.90
18309;DHT22;9280;50.276;18.650;2022-09-29T04:57:47;9.10;99.90
18309;DHT22;9280;50.276;18.650;2022-09-29T05:00:34;9.10;99.90
18309;DHT22;9280;50.276;18.650;2022-09-29T05:03:19;9.10;99.90
18309;DHT22;9280;50.276;18.650;2022-09-29T05:06:07;9.20;99.90
18309;DHT22;9280;50.276;18.650;2022-09-29T05:08:55;9.20;99.90
18309;DHT22;9280;50.276;18.650;2022-09-29T05:11:41;9.20;99.90
18309;DHT22;9280;50.276;18.650;2022-09-29T05:14:27;9.20;99.90
18309;DHT22;9280;50.276;18.650;2022-09-29T05:17:13;9.20;99.90
18309;DHT22;9280;50.276;18.650;2022-09-29T05:20:00;9.30;99.90
18309;DHT22;9280;50.276;18.650;2022-09-29T05:22:47;9.30;99.90
18309;DHT22;9280;50.276;18.650;2022-09-29T05:25:35;9.40;99.90
18309;DHT22;9280;50.276;18.650;2022-09-29T05:28:22;9.40;99.90
18309;DHT22;9280;50.276;18.650;2022-09-29T05:31:08;9.50;99.90
18309;DHT22;9280;50.276;18.650;2022-09-29T05:33:55;9.60;99.90
18309;DHT22;9280;50.276;18.650;2022-09-29T05:36:41;9.60;99.90
18309;DHT22;9280;50.276;18.650;2022-09-29T05:39:28;9.70;99.90
18309;DHT22;9280;50.276;18.650;2022-09-29T05:42:19;9.70;99.90
18309;DHT22;9280;50.276;18.650;2022-09-29T05:45:06;9.80;99.90
18309;DHT22;9280;50.276;18.650;2022-09-29T05:47:53;9.80;99.90
18309;DHT22;9280;50.276;18.650;2022-09-29T05:50:40;9.80;99.90
18309;DHT22;9280;50.276;18.650;2022-09-29T05:53:27;9.80;99.90
18309;DHT22;9280;50.276;18.650;2022-09-29T05:56:14;9.80;99.90
18309;DHT22;9280;50.276;18.650;2022-09-29T05:59:01;9.90;99.90
18309;DHT22;9280;50.276;18.650;2022-09-29T06:01:48;9.90;99.90
18309;DHT22;9280;50.276;18.650;2022-09-29T06:04:34;10.00;99.90
18309;DHT22;9280;50.276;18.650;2022-09-29T06:07:20;10.10;99.90
18309;DHT22;9280;50.276;18.650;2022-09-29T06:10:07;10.20;99.90
18309;DHT22;9280;50.276;18.650;2022-09-29T06:12:53;10.20;99.90
18309;DHT22;9280;50.276;18.650;2022-09-29T06:15:42;10.30;99.90
18309;DHT22;9280;50.276;18.650;2022-09-29T06:18:29;10.30;99.90
18309;DHT22;9280;50.276;18.650;2022-09-29T06:21:17;10.40;99.90
18309;DHT22;9280;50.276;18.650;2022-09-29T06:24:04;10.50;99.90
18309;DHT22;9280;50.276;18.650;2022-09-29T06:26:52;10.60;99.90
18309;DHT22;9280;50.276;18.650;2022-09-29T06:29:39;10.70;99.90
18309;DHT22;9280;50.276;18.650;2022-09-29T06:32:26;10.80;99.90
18309;DHT22;9280;50.276;18.650;2022-09-29T06:35:13;11.00;99.90
18309;DHT22;9280;50.276;18.650;2022-09-29T06:38:17;11.20;99.90
18309;DHT22;9280;50.276;18.650;2022-09-29T06:41:03;11.30;99.90
18309;DHT22;9280;50.276;18.650;2022-09-29T06:43:51;11.50;99.90
18309;DHT22;9280;50.276;18.650;2022-09-29T06:46:37;11.70;99.90
18309;DHT22;9280;50.276;18.650;2022-09-29T06:49:24;11.80;99.90
18309;DHT22;9280;50.276;18.650;2022-09-29T06:52:10;11.80;99.90
18309;DHT22;9280;50.276;18.650;2022-09-29T06:54:56;11.80;99.90
18309;DHT22;9280;50.276;18.650;2022-09-29T06:57:42;11.90;99.90
18309;DHT22;9280;50.276;18.650;2022-09-29T07:00:30;11.90;99.90
18309;DHT22;9280;50.276;18.650;2022-09-29T07:03:16;12.00;99.90
18309;DHT22;9280;50.276;18.650;2022-09-29T07:06:05;12.10;99.90
18309;DHT22;9280;50.276;18.650;2022-09-29T07:08:53;12.20;99.90
18309;DHT22;9280;50.276;18.650;2022-09-29T07:11:40;12.30;99.90
18309;DHT22;9280;50.276;18.650;2022-09-29T07:14:27;12.40;99.90
18309;DHT22;9280;50.276;18.650;2022-09-29T07:17:13;12.50;99.90
18309;DHT22;9280;50.276;18.650;2022-09-29T07:19:59;12.70;99.90
18309;DHT22;9280;50.276;18.650;2022-09-29T07:22:47;12.70;99.90
18309;DHT22;9280;50.276;18.650;2022-09-29T07:25:34;12.80;99.90
18309;DHT22;9280;50.276;18.650;2022-09-29T07:28:21;12.80;99.90
18309;DHT22;9280;50.276;18.650;2022-09-29T07:31:08;12.90;99.90
18309;DHT22;9280;50.276;18.650;2022-09-29T07:33:55;13.00;99.90
18309;DHT22;9280;50.276;18.650;2022-09-29T07:36:44;13.10;99.90
18309;DHT22;9280;50.276;18.650;2022-09-29T07:39:32;13.30;99.90
18309;DHT22;9280;50.276;18.650;2022-09-29T07:42:18;13.40;99.90
18309;DHT22;9280;50.276;18.650;2022-09-29T07:45:12;13.50;99.90
18309;DHT22;9280;50.276;18.650;2022-09-29T07:47:59;13.40;99.90
18309;DHT22;9280;50.276;18.650;2022-09-29T07:50:45;13.40;99.90
18309;DHT22;9280;50.276;18.650;2022-09-29T07:53:32;13.40;99.90
18309;DHT22;9280;50.276;18.650;2022-09-29T07:56:20;13.30;99.90
18309;DHT22;9280;50.276;18.650;2022-09-29T07:59:09;13.30;99.90
18309;DHT22;9280;50.276;18.650;2022-09-29T08:01:55;13.30;99.90
18309;DHT22;9280;50.276;18.650;2022-09-29T08:04:42;13.30;99.90
18309;DHT22;9280;50.276;18.650;2022-09-29T08:07:28;13.30;99.90
18309;DHT22;9280;50.276;18.650;2022-09-29T08:10:14;13.30;99.90
18309;DHT22;9280;50.276;18.650;2022-09-29T08:13:02;13.40;99.90
18309;DHT22;9280;50.276;18.650;2022-09-29T08:15:48;13.40;99.90
18309;DHT22;9280;50.276;18.650;2022-09-29T08:18:42;13.50;99.90
18309;DHT22;9280;50.276;18.650;2022-09-29T08:21:28;13.70;99.90
18309;DHT22;9280;50.276;18.650;2022-09-29T08:24:15;13.80;99.90
18309;DHT22;9280;50.276;18.650;2022-09-29T08:27:02;13.70;99.90
18309;DHT22;9280;50.276;18.650;2022-09-29T08:29:52;13.70;99.90
18309;DHT22;9280;50.276;18.650;2022-09-29T08:32:37;13.80;99.90
18309;DHT22;9280;50.276;18.650;2022-09-29T08:35:23;13.70;99.90
18309;DHT22;9280;50.276;18.650;2022-09-29T08:38:10;13.70;99.90
18309;DHT22;9280;50.276;18.650;2022-09-29T08:41:02;13.80;99.90
18309;DHT22;9280;50.276;18.650;2022-09-29T08:43:50;13.90;99.90
18309;DHT22;9280;50.276;18.650;2022-09-29T08:46:43;14.00;99.90
18309;DHT22;9280;50.276;18.650;2022-09-29T08:49:34;13.90;99.90
18309;DHT22;9280;50.276;18.650;2022-09-29T08:52:25;13.80;99.90
18309;DHT22;9280;50.276;18.650;2022-09-29T08:55:22;13.60;99.90
18309;DHT22;9280;50.276;18.650;2022-09-29T08:58:12;13.60;99.90
18309;DHT22;9280;50.276;18.650;2022-09-29T09:01:16;13.50;99.90
18309;DHT22;9280;50.276;18.650;2022-09-29T09:04:31;13.60;99.90
18309;DHT22;9280;50.276;18.650;2022-09-29T09:07:24;13.50;99.90
18309;DHT22;9280;50.276;18.650;2022-09-29T09:10:24;13.50;99.90
18309;DHT22;9280;50.276;18.650;2022-09-29T09:13:32;13.40;99.90
18309;DHT22;9280;50.276;18.650;2022-09-29T09:16:32;13.60;99.90
18309;DHT22;9280;50.276;18.650;2022-09-29T09:19:54;13.70;99.90
18309;DHT22;9280;50.276;18.650;2022-09-29T09:22:50;13.80;99.90
18309;DHT22;9280;50.276;18.650;2022-09-29T09:25:41;13.90;99.90
18309;DHT22;9280;50.276;18.650;2022-09-29T09:28:33;14.00;99.90
18309;DHT22;9280;50.276;18.650;2022-09-29T09:31:23;14.30;99.90
18309;DHT22;9280;50.276;18.650;2022-09-29T09:34:14;14.50;99.90
18309;DHT22;9280;50.276;18.650;2022-09-29T09:37:09;14.60;99.90
18309;DHT22;9280;50.276;18.650;2022-09-29T09:39:59;14.80;99.90
18309;DHT22;9280;50.276;18.650;2022-09-29T09:42:51;14.60;99.90
18309;DHT22;9280;50.276;18.650;2022-09-29T09:45:43;14.60;99.90
18309;DHT22;9280;50.276;18.650;2022-09-29T09:48:35;14.40;99.90
18309;DHT22;9280;50.276;18.650;2022-09-29T09:51:31;14.30;99.90
18309;DHT22;9280;50.276;18.650;2022-09-29T09:54:26;14.40;99.90
18309;DHT22;9280;50.276;18.650;2022-09-29T09:57:38;14.40;99.90
18309;DHT22;9280;50.276;18.650;2022-09-29T10:00:30;14.70;99.90
18309;DHT22;9280;50.276;18.650;2022-09-29T10:03:18;15.00;99.90
18309;DHT22;9280;50.276;18.650;2022-09-29T10:06:06;15.40;99.90
18309;DHT22;9280;50.276;18.650;2022-09-29T10:08:53;15.70;99.90
18309;DHT22;9280;50.276;18.650;2022-09-29T10:11:42;15.80;99.90
18309;DHT22;9280;50.276;18.650;2022-09-29T10:14:28;15.90;99.90
18309;DHT22;9280;50.276;18.650;2022-09-29T10:17:16;15.90;99.90
18309;DHT22;9280;50.276;18.650;2022-09-29T10:20:06;15.80;99.90
18309;DHT22;9280;50.276;18.650;2022-09-29T10:22:52;15.80;99.90
18309;DHT22;9280;50.276;18.650;2022-09-29T10:25:38;15.90;99.90
18309;DHT22;9280;50.276;18.650;2022-09-29T10:28:35;15.90;99.90
18309;DHT22;9280;50.276;18.650;2022-09-29T10:31:24;16.00;99.90
18309;DHT22;9280;50.276;18.650;2022-09-29T10:34:15;16.10;99.90
18309;DHT22;9280;50.276;18.650;2022-09-29T10:37:04;16.10;99.90
18309;DHT22;9280;50.276;18.650;2022-09-29T10:39:50;16.20;99.90
18309;DHT22;9280;50.276;18.650;2022-09-29T10:42:38;16.30;99.90
18309;DHT22;9280;50.276;18.650;2022-09-29T10:45:26;16.40;99.90
18309;DHT22;9280;50.276;18.650;2022-09-29T10:48:14;16.50;99.90
18309;DHT22;9280;50.276;18.650;2022-09-29T10:51:01;16.40;99.90
18309;DHT22;9280;50.276;18.650;2022-09-29T10:53:48;16.30;99.90
18309;DHT22;9280;50.276;18.650;2022-09-29T10:56:34;16.30;99.90
18309;DHT22;9280;50.276;18.650;2022-09-29T10:59:21;16.40;99.90
18309;DHT22;9280;50.276;18.650;2022-09-29T11:02:20;16.40;99.90
18309;DHT22;9280;50.276;18.650;2022-09-29T11:05:16;16.40;99.90
18309;DHT22;9280;50.276;18.650;2022-09-29T11:08:10;16.50;99.90
18309;DHT22;9280;50.276;18.650;2022-09-29T11:11:03;16.70;99.90
18309;DHT22;9280;50.276;18.650;2022-09-29T11:13:51;16.90;99.90
18309;DHT22;9280;50.276;18.650;2022-09-29T11:16:37;17.00;99.90
18309;DHT22;9280;50.276;18.650;2022-09-29T11:19:27;17.20;99.90
18309;DHT22;9280;50.276;18.650;2022-09-29T11:22:47;17.40;99.60
18309;DHT22;9280;50.276;18.650;2022-09-29T11:26:00;17.50;98.60
18309;DHT22;9280;50.276;18.650;2022-09-29T11:29:20;17.70;96.30
18309;DHT22;9280;50.276;18.650;2022-09-29T11:32:27;17.90;95.80
18309;DHT22;9280;50.276;18.650;2022-09-29T11:35:28;18.00;95.60
18309;DHT22;9280;50.276;18.650;2022-09-29T11:38:42;18.10;95.30
18309;DHT22;9280;50.276;18.650;2022-09-29T11:41:56;18.40;93.90
18309;DHT22;9280;50.276;18.650;2022-09-29T11:44:57;18.10;93.80
18309;DHT22;9280;50.276;18.650;2022-09-29T11:48:19;18.70;93.10
18309;DHT22;9280;50.276;18.650;2022-09-29T11:51:16;19.20;91.50
18309;DHT22;9280;50.276;18.650;2022-09-29T11:54:33;19.70;90.30
18309;DHT22;9280;50.276;18.650;2022-09-29T11:57:33;20.10;87.50
18309;DHT22;9280;50.276;18.650;2022-09-29T12:00:35;20.20;76.90
18309;DHT22;9280;50.276;18.650;2022-09-29T12:03:35;20.00;73.30
18309;DHT22;9280;50.276;18.650;2022-09-29T12:06:53;20.00;73.80
18309;DHT22;9280;50.276;18.650;2022-09-29T12:09:54;20.30;73.50
18309;DHT22;9280;50.276;18.650;2022-09-29T12:12:45;20.70;74.30
18309;DHT22;9280;50.276;18.650;2022-09-29T12:15:45;22.00;76.20
18309;DHT22;9280;50.276;18.650;2022-09-29T12:18:37;27.10;59.90
18309;DHT22;9280;50.276;18.650;2022-09-29T12:21:30;32.40;38.80
18309;DHT22;9280;50.276;18.650;2022-09-29T12:24:23;36.30;28.10
18309;DHT22;9280;50.276;18.650;2022-09-29T12:27:15;38.80;22.30
18309;DHT22;9280;50.276;18.650;2022-09-29T12:30:04;39.10;18.80
18309;DHT22;9280;50.276;18.650;2022-09-29T12:32:57;32.80;22.10
18309;DHT22;9280;50.276;18.650;2022-09-29T12:35:50;29.60;25.20
18309;DHT22;9280;50.276;18.650;2022-09-29T12:38:41;25.80;29.80
18309;DHT22;9280;50.276;18.650;2022-09-29T12:41:36;22.60;36.00
18309;DHT22;9280;50.276;18.650;2022-09-29T12:44:28;20.40;40.70
18309;DHT22;9280;50.276;18.650;2022-09-29T12:47:21;19.40;45.80
18309;DHT22;9280;50.276;18.650;2022-09-29T12:50:12;19.10;48.10
18309;DHT22;9280;50.276;18.650;2022-09-29T12:53:04;20.50;50.60
18309;DHT22;9280;50.276;18.650;2022-09-29T12:55:57;26.50;43.10
18309;DHT22;9280;50.276;18.650;2022-09-29T12:58:49;25.90;33.30
18309;DHT22;9280;50.276;18.650;2022-09-29T13:01:38;24.00;34.80
18309;DHT22;9280;50.276;18.650;2022-09-29T13:04:52;22.20;38.70
18309;DHT22;9280;50.276;18.650;2022-09-29T13:08:09;20.80;41.70
18309;DHT22;9280;50.276;18.650;2022-09-29T13:11:02;19.80;44.40
18309;DHT22;9280;50.276;18.650;2022-09-29T13:17:37;18.10;51.40
18309;DHT22;9280;50.276;18.650;2022-09-29T13:20:41;17.50;54.00
18309;DHT22;9280;50.276;18.650;2022-09-29T13:24:00;17.00;56.80
18309;DHT22;9280;50.276;18.650;2022-09-29T13:27:19;16.60;58.50
18309;DHT22;9280;50.276;18.650;2022-09-29T13:30:15;16.60;59.60
18309;DHT22;9280;50.276;18.650;2022-09-29T13:33:09;16.40;60.30
18309;DHT22;9280;50.276;18.650;2022-09-29T13:35:56;16.50;60.90
18309;DHT22;9280;50.276;18.650;2022-09-29T13:38:46;16.60;60.50
18309;DHT22;9280;50.276;18.650;2022-09-29T13:41:36;17.20;60.40
18309;DHT22;9280;50.276;18.650;2022-09-29T13:44:26;18.20;60.70
18309;DHT22;9280;50.276;18.650;2022-09-29T13:47:32;23.40;55.60
18309;DHT22;9280;50.276;18.650;2022-09-29T13:50:40;26.80;38.50
18309;DHT22;9280;50.276;18.650;2022-09-29T13:53:33;25.80;36.60
18309;DHT22;9280;50.276;18.650;2022-09-29T13:56:20;26.10;35.50
18309;DHT22;9280;50.276;18.650;2022-09-29T13:59:13;26.80;33.50
18309;DHT22;9280;50.276;18.650;2022-09-29T14:02:01;24.50;36.20
18309;DHT22;9280;50.276;18.650;2022-09-29T14:04:53;24.60;37.00
18309;DHT22;9280;50.276;18.650;2022-09-29T14:07:41;24.20;38.00
18309;DHT22;9280;50.276;18.650;2022-09-29T14:10:36;23.60;39.20
18309;DHT22;9280;50.276;18.650;2022-09-29T14:13:25;25.70;37.10
18309;DHT22;9280;50.276;18.650;2022-09-29T14:16:24;29.50;34.00
18309;DHT22;9280;50.276;18.650;2022-09-29T14:22:59;33.50;25.20
18309;DHT22;9280;50.276;18.650;2022-09-29T14:25:50;33.60;24.30
18309;DHT22;9280;50.276;18.650;2022-09-29T14:28:40;32.70;24.40
18309;DHT22;9280;50.276;18.650;2022-09-29T14:31:29;30.90;25.30
18309;DHT22;9280;50.276;18.650;2022-09-29T14:34:18;28.80;27.00
18309;DHT22;9280;50.276;18.650;2022-09-29T14:37:13;26.70;29.70
18309;DHT22;9280;50.276;18.650;2022-09-29T14:40:07;25.30;31.80
18309;DHT22;9280;50.276;18.650;2022-09-29T14:43:14;25.30;34.50
18309;DHT22;9280;50.276;18.650;2022-09-29T14:53:39;30.10;27.00
18309;DHT22;9280;50.276;18.650;2022-09-29T14:56:43;29.90;27.30
18309;DHT22;9280;50.276;18.650;2022-09-29T14:59:43;30.10;27.80
18309;DHT22;9280;50.276;18.650;2022-09-29T15:02:33;31.00;26.60
18309;DHT22;9280;50.276;18.650;2022-09-29T15:05:25;30.20;26.20
18309;DHT22;9280;50.276;18.650;2022-09-29T15:08:27;28.20;27.80
18309;DHT22;9280;50.276;18.650;2022-09-29T15:11:26;27.90;30.00
18309;DHT22;9280;50.276;18.650;2022-09-29T15:14:23;27.70;29.90
18309;DHT22;9280;50.276;18.650;2022-09-29T15:17:16;26.20;31.20
18309;DHT22;9280;50.276;18.650;2022-09-29T15:20:10;24.30;33.50
18309;DHT22;9280;50.276;18.650;2022-09-29T15:23:18;22.60;36.90
18309;DHT22;9280;50.276;18.650;2022-09-29T15:26:11;21.30;39.70
18309;DHT22;9280;50.276;18.650;2022-09-29T15:28:58;20.40;42.30
18309;DHT22;9280;50.276;18.650;2022-09-29T15:31:46;19.60;44.80
18309;DHT22;9280;50.276;18.650;2022-09-29T15:34:37;19.90;48.50
18309;DHT22;9280;50.276;18.650;2022-09-29T15:37:24;22.00;48.80
18309;DHT22;9280;50.276;18.650;2022-09-29T15:40:14;24.00;43.70
18309;DHT22;9280;50.276;18.650;2022-09-29T15:43:00;25.20;39.30
18309;DHT22;9280;50.276;18.650;2022-09-29T15:45:53;25.50;37.50
18309;DHT22;9280;50.276;18.650;2022-09-29T15:49:09;25.00;37.40
18309;DHT22;9280;50.276;18.650;2022-09-29T15:51:57;25.10;37.20
18309;DHT22;9280;50.276;18.650;2022-09-29T15:54:44;24.50;36.40
18309;DHT22;9280;50.276;18.650;2022-09-29T15:57:49;23.30;37.80
18309;DHT22;9280;50.276;18.650;2022-09-29T16:00:46;22.40;39.80
18309;DHT22;9280;50.276;18.650;2022-09-29T16:03:37;21.40;42.20
18309;DHT22;9280;50.276;18.650;2022-09-29T16:06:28;20.40;45.00
18309;DHT22;9280;50.276;18.650;2022-09-29T16:09:18;19.40;47.30
18309;DHT22;9280;50.276;18.650;2022-09-29T16:12:05;18.20;50.60
18309;DHT22;9280;50.276;18.650;2022-09-29T16:14:53;17.30;53.50
18309;DHT22;9280;50.276;18.650;2022-09-29T16:17:40;16.50;56.30
18309;DHT22;9280;50.276;18.650;2022-09-29T16:20:29;15.80;58.80
18309;DHT22;9280;50.276;18.650;2022-09-29T16:23:20;15.20;61.50
18309;DHT22;9280;50.276;18.650;2022-09-29T16:26:12;14.70;65.10
18309;DHT22;9280;50.276;18.650;2022-09-29T16:29:05;14.20;69.20
18309;DHT22;9280;50.276;18.650;2022-09-29T16:31:52;13.80;71.50
18309;DHT22;9280;50.276;18.650;2022-09-29T16:34:39;13.40;74.80
18309;DHT22;9280;50.276;18.650;2022-09-29T16:37:26;13.10;80.40
18309;DHT22;9280;50.276;18.650;2022-09-29T16:40:18;12.90;84.60
18309;DHT22;9280;50.276;18.650;2022-09-29T16:43:18;12.70;92.10
18309;DHT22;9280;50.276;18.650;2022-09-29T16:46:10;12.40;96.10
18309;DHT22;9280;50.276;18.650;2022-09-29T16:49:01;12.20;99.70
18309;DHT22;9280;50.276;18.650;2022-09-29T16:51:49;12.00;99.90
18309;DHT22;9280;50.276;18.650;2022-09-29T16:54:40;11.80;99.90
18309;DHT22;9280;50.276;18.650;2022-09-29T16:57:31;11.60;99.90
18309;DHT22;9280;50.276;18.650;2022-09-29T17:00:18;11.50;99.90
18309;DHT22;9280;50.276;18.650;2022-09-29T17:03:05;11.30;99.90
18309;DHT22;9280;50.276;18.650;2022-09-29T17:05:55;11.20;99.90
18309;DHT22;9280;50.276;18.650;2022-09-29T17:08:43;11.10;99.90
18309;DHT22;9280;50.276;18.650;2022-09-29T17:11:30;11.00;99.90
18309;DHT22;9280;50.276;18.650;2022-09-29T17:14:17;10.90;99.90
18309;DHT22;9280;50.276;18.650;2022-09-29T17:17:05;10.90;99.90
18309;DHT22;9280;50.276;18.650;2022-09-29T17:19:53;10.80;99.90
18309;DHT22;9280;50.276;18.650;2022-09-29T17:22:41;10.70;99.90
18309;DHT22;9280;50.276;18.650;2022-09-29T17:25:29;10.60;99.90
18309;DHT22;9280;50.276;18.650;2022-09-29T17:28:17;10.60;99.90
18309;DHT22;9280;50.276;18.650;2022-09-29T17:31:04;10.50;99.90
18309;DHT22;9280;50.276;18.650;2022-09-29T17:33:51;10.40;99.90
18309;DHT22;9280;50.276;18.650;2022-09-29T17:36:40;10.40;99.90
18309;DHT22;9280;50.276;18.650;2022-09-29T17:39:27;10.30;99.90
18309;DHT22;9280;50.276;18.650;2022-09-29T17:42:14;10.20;99.90
18309;DHT22;9280;50.276;18.650;2022-09-29T17:45:01;10.10;99.90
18309;DHT22;9280;50.276;18.650;2022-09-29T17:47:49;10.10;99.90
18309;DHT22;9280;50.276;18.650;2022-09-29T17:50:39;10.00;99.90
18309;DHT22;9280;50.276;18.650;2022-09-29T17:53:25;9.90;99.90
18309;DHT22;9280;50.276;18.650;2022-09-29T17:56:18;9.80;99.90
18309;DHT22;9280;50.276;18.650;2022-09-29T17:59:06;9.70;99.90
18309;DHT22;9280;50.276;18.650;2022-09-29T18:01:53;9.70;99.90
18309;DHT22;9280;50.276;18.650;2022-09-29T18:04:41;9.60;99.90
18309;DHT22;9280;50.276;18.650;2022-09-29T18:07:28;9.50;99.90
18309;DHT22;9280;50.276;18.650;2022-09-29T18:10:19;9.40;99.90
18309;DHT22;9280;50.276;18.650;2022-09-29T18:13:05;9.40;99.90
18309;DHT22;9280;50.276;18.650;2022-09-29T18:15:52;9.30;99.90
18309;DHT22;9280;50.276;18.650;2022-09-29T18:18:39;9.20;99.90
18309;DHT22;9280;50.276;18.650;2022-09-29T18:21:26;9.20;99.90
18309;DHT22;9280;50.276;18.650;2022-09-29T18:24:15;9.10;99.90
18309;DHT22;9280;50.276;18.650;2022-09-29T18:27:01;9.10;99.90